createdAt,value
2023-02-04T00:00:07.628Z,97011.72
2023-02-04T00:02:34.752Z,97009.53
2023-02-04T00:05:01.779Z,96999.19
2023-02-04T00:07:28.579Z,97006.53
2023-02-04T00:09:55.502Z,96996.69
2023-02-04T00:12:22.846Z,96998.50
2023-02-04T00:14:49.795Z,96993.00
2023-02-04T00:17:16.865Z,96991.31
2023-02-04T00:19:43.803Z,96992.81
2023-02-04T00:22:10.951Z,96986.44
2023-02-04T00:24:38.352Z,96973.75
2023-02-04T00:27:06.281Z,96974.75
2023-02-04T00:29:33.105Z,96966.53
2023-02-04T00:32:00.120Z,96964.31
2023-02-04T00:34:27.044Z,96957.28
2023-02-04T00:36:53.832Z,96952.78
2023-02-04T00:39:20.546Z,96946.97
2023-02-04T00:41:47.176Z,96942.50
2023-02-04T00:44:16.820Z,96944.00
2023-02-04T00:46:43.803Z,96933.47
2023-02-04T00:49:11.319Z,96917.44
2023-02-04T00:51:40.594Z,96924.72
2023-02-04T00:54:12.315Z,96923.03
2023-02-04T00:56:55.184Z,96912.69
2023-02-04T00:59:26.261Z,96905.09
2023-02-04T01:01:59.518Z,96895.53
2023-02-04T01:04:31.023Z,96872.94
2023-02-04T01:07:08.912Z,96878.75
2023-02-04T01:09:40.073Z,96873.66
2023-02-04T01:12:08.740Z,96867.47
2023-02-04T01:14:41.234Z,96864.59
2023-02-04T01:17:17.359Z,96860.09
2023-02-04T01:19:47.773Z,96842.41
2023-02-04T01:22:15.727Z,96825.38
2023-02-04T01:24:47.270Z,96831.84
2023-02-04T01:27:27.361Z,96826.03
2023-02-04T01:30:01.844Z,96816.38
2023-02-04T01:32:30.119Z,96813.97
2023-02-04T01:35:01.370Z,96817.31
2023-02-04T01:37:36.183Z,96807.50
2023-02-04T01:40:08.325Z,96802.44
2023-02-04T01:42:36.930Z,96803.91
2023-02-04T01:45:09.253Z,96793.53
2023-02-04T01:47:42.125Z,96783.19
2023-02-04T01:50:14.712Z,96776.59
2023-02-04T01:52:46.326Z,96773.81
2023-02-04T01:55:20.284Z,96765.41
2023-02-04T01:57:49.113Z,96756.91
2023-02-04T02:00:32.137Z,96748.56
2023-02-04T02:03:09.089Z,96726.53
2023-02-04T02:05:44.320Z,96739.84
2023-02-04T02:08:18.069Z,96739.22
2023-02-04T02:10:48.557Z,96732.28
2023-02-04T02:13:20.346Z,96721.19
2023-02-04T02:15:59.348Z,96718.47
2023-02-04T02:18:30.204Z,96713.22
2023-02-04T02:21:01.266Z,96719.88
2023-02-04T02:23:48.750Z,96713.94
2023-02-04T02:26:19.352Z,96703.88
2023-02-04T02:28:52.313Z,96706.28
2023-02-04T02:31:25.936Z,96710.63
2023-02-04T02:34:14.317Z,96689.44
2023-02-04T02:36:49.091Z,96704.44
2023-02-04T02:39:20.218Z,96686.56
2023-02-04T02:41:51.260Z,96693.78
2023-02-04T02:44:27.518Z,96684.63
2023-02-04T02:46:56.140Z,96684.81
2023-02-04T02:49:24.895Z,96682.84
2023-02-04T02:51:54.853Z,96682.41
2023-02-04T02:57:25.766Z,96670.28
2023-02-04T02:59:57.126Z,96675.28
2023-02-04T03:02:36.969Z,96661.94
2023-02-04T03:05:15.649Z,96661.78
2023-02-04T03:07:42.572Z,96672.78
2023-02-04T03:10:11.815Z,96672.50
2023-02-04T03:12:39.335Z,96661.59
2023-02-04T03:15:14.870Z,96664.00
2023-02-04T03:17:46.098Z,96657.53
2023-02-04T03:20:17.924Z,96657.25
2023-02-04T03:22:45.690Z,96660.94
2023-02-04T03:25:30.072Z,96663.25
2023-02-04T03:28:02.991Z,96664.53
2023-02-04T03:30:34.489Z,96670.84
2023-02-04T03:33:09.099Z,96670.84
2023-02-04T03:35:36.834Z,96666.41
2023-02-04T03:38:07.596Z,96665.19
2023-02-04T03:40:34.899Z,96665.66
2023-02-04T03:43:02.256Z,96662.59
2023-02-04T03:45:45.393Z,96655.09
2023-02-04T03:48:14.698Z,96668.16
2023-02-04T03:50:42.528Z,96667.31
2023-02-04T03:53:10.387Z,96671.78
2023-02-04T03:55:38.009Z,96677.69
2023-02-04T03:58:08.330Z,96671.47
2023-02-04T04:00:36.458Z,96669.53
2023-02-04T04:03:11.799Z,96660.09
2023-02-04T04:05:43.833Z,96662.13
2023-02-04T04:08:17.227Z,96642.25
2023-02-04T04:10:45.387Z,96655.19
2023-02-04T04:13:26.171Z,96662.75
2023-02-04T04:16:11.137Z,96654.56
2023-02-04T04:18:39.571Z,96647.16
2023-02-04T04:21:11.880Z,96639.19
2023-02-04T04:23:39.250Z,96632.44
2023-02-04T04:26:18.973Z,96626.50
2023-02-04T04:28:53.853Z,96636.03
2023-02-04T04:31:36.058Z,96633.19
2023-02-04T04:34:10.549Z,96629.00
2023-02-04T04:36:44.647Z,96630.66
2023-02-04T04:39:19.106Z,96631.69
2023-02-04T04:41:55.831Z,96624.66
2023-02-04T04:44:28.064Z,96619.75
2023-02-04T04:47:04.706Z,96607.91
2023-02-04T04:52:37.688Z,96621.88
2023-02-04T04:57:58.576Z,96638.44
2023-02-04T05:00:36.077Z,96618.47
2023-02-04T05:03:05.411Z,96613.09
2023-02-04T05:06:14.127Z,96612.53
2023-02-04T05:08:31.881Z,96611.81
2023-02-04T05:11:05.802Z,96611.44
2023-02-04T05:13:32.579Z,96628.44
2023-02-04T05:15:59.649Z,96623.19
2023-02-04T05:18:26.565Z,96620.47
2023-02-04T05:20:53.595Z,96611.69
2023-02-04T05:23:20.421Z,96590.69
2023-02-04T05:25:47.858Z,96614.94
2023-02-04T05:28:16.884Z,96615.75
2023-02-04T05:30:45.515Z,96605.50
2023-02-04T05:33:14.226Z,96608.09
2023-02-04T05:35:42.106Z,96608.09
2023-02-04T05:38:08.984Z,96606.03
2023-02-04T05:40:37.001Z,96612.69
2023-02-04T05:43:05.044Z,96621.66
2023-02-04T05:45:32.829Z,96622.34
2023-02-04T05:47:59.740Z,96624.75
2023-02-04T05:50:27.518Z,96631.56
2023-02-04T05:52:54.227Z,96626.22
2023-02-04T05:55:21.185Z,96636.91
2023-02-04T05:57:47.966Z,96640.97
2023-02-04T06:00:15.167Z,96666.59
2023-02-04T06:02:41.938Z,96665.06
2023-02-04T06:05:09.102Z,96668.28
2023-02-04T06:07:35.846Z,96676.69
2023-02-04T06:10:02.633Z,96669.94
2023-02-04T06:12:29.509Z,96664.47
2023-02-04T06:14:56.303Z,96673.63
2023-02-04T06:17:23.134Z,96677.78
2023-02-04T06:19:49.773Z,96676.56
2023-02-04T06:22:16.553Z,96674.91
2023-02-04T06:24:43.160Z,96682.38
2023-02-04T06:27:11.382Z,96679.38
2023-02-04T06:29:38.233Z,96669.13
2023-02-04T06:32:05.769Z,96661.72
2023-02-04T06:34:32.921Z,96669.94
2023-02-04T06:37:01.703Z,96678.56
2023-02-04T06:39:28.530Z,96681.16
2023-02-04T06:41:55.235Z,96687.16
2023-02-04T06:44:21.988Z,96674.31
2023-02-04T06:46:48.785Z,96670.78
2023-02-04T06:49:15.465Z,96662.78
2023-02-04T06:51:42.182Z,96673.84
2023-02-04T06:54:08.906Z,96677.19
2023-02-04T06:56:35.617Z,96675.25
2023-02-04T06:59:03.464Z,96673.66
2023-02-04T07:01:30.489Z,96671.81
2023-02-04T07:03:57.317Z,96674.00
2023-02-04T07:06:24.099Z,96664.75
2023-02-04T07:08:50.906Z,96668.97
2023-02-04T07:11:17.611Z,96657.66
2023-02-04T07:13:44.288Z,96657.66
2023-02-04T07:16:11.105Z,96660.03
2023-02-04T07:18:37.850Z,96658.38
2023-02-04T07:21:04.661Z,96670.03
2023-02-04T07:23:31.351Z,96653.19
2023-02-04T07:25:59.553Z,96658.06
2023-02-04T07:28:26.375Z,96655.28
2023-02-04T07:30:53.236Z,96655.91
2023-02-04T07:33:20.839Z,96664.44
2023-02-04T07:35:52.393Z,96657.19
2023-02-04T07:38:19.211Z,96658.88
2023-02-04T07:40:46.642Z,96655.53
2023-02-04T07:43:13.487Z,96658.88
2023-02-04T07:45:42.976Z,96649.59
2023-02-04T07:48:10.753Z,96651.16
2023-02-04T07:50:37.675Z,96647.63
2023-02-04T07:53:04.413Z,96657.19
2023-02-04T07:55:31.227Z,96657.00
2023-02-04T07:57:58.072Z,96646.59
2023-02-04T08:00:24.709Z,96647.34
2023-02-04T08:02:52.232Z,96640.81
2023-02-04T08:05:19.101Z,96642.09
2023-02-04T08:07:45.894Z,96642.91
2023-02-04T08:10:13.071Z,96655.38
2023-02-04T08:12:39.953Z,96631.06
2023-02-04T08:15:10.119Z,96644.56
2023-02-04T08:17:36.841Z,96651.31
2023-02-04T08:20:03.792Z,96639.47
2023-02-04T08:22:30.458Z,96631.91
2023-02-04T08:24:57.237Z,96636.03
2023-02-04T08:27:23.921Z,96646.84
2023-02-04T08:29:50.759Z,96638.53
2023-02-04T08:32:17.465Z,96634.38
2023-02-04T08:34:44.317Z,96629.38
2023-02-04T08:37:11.063Z,96645.69
2023-02-04T08:39:39.043Z,96648.31
2023-02-04T08:42:05.565Z,96646.22
2023-02-04T08:44:32.689Z,96650.78
2023-02-04T08:47:02.776Z,96650.59
2023-02-04T08:49:30.290Z,96649.88
2023-02-04T08:51:56.997Z,96657.44
2023-02-04T08:54:23.758Z,96651.59
2023-02-04T08:56:50.440Z,96649.13
2023-02-04T08:59:17.093Z,96643.09
2023-02-04T09:01:49.661Z,96634.38
2023-02-04T09:04:17.669Z,96625.34
2023-02-04T09:06:44.695Z,96628.56
2023-02-04T09:09:11.540Z,96624.94
2023-02-04T09:11:38.293Z,96624.00
2023-02-04T09:14:05.163Z,96627.84
2023-02-04T09:16:32.311Z,96616.09
2023-02-04T09:18:59.156Z,96609.84
2023-02-04T09:21:26.475Z,96602.66
2023-02-04T09:23:53.170Z,96611.91
2023-02-04T09:26:19.990Z,96608.78
2023-02-04T09:28:48.050Z,96600.28
2023-02-04T09:31:15.295Z,96611.06
2023-02-04T09:33:42.341Z,96598.16
2023-02-04T09:36:09.997Z,96603.50
2023-02-04T09:38:36.817Z,96604.31
2023-02-04T09:41:10.788Z,96610.41
2023-02-04T09:43:42.987Z,96596.84
2023-02-04T09:46:23.220Z,96601.72
2023-02-04T09:48:50.888Z,96590.63
2023-02-04T09:51:22.932Z,96596.97
2023-02-04T09:53:51.616Z,96598.66
2023-02-04T09:56:19.456Z,96595.66
2023-02-04T09:58:46.464Z,96599.28
2023-02-04T10:01:19.032Z,96600.09
2023-02-04T10:03:47.915Z,96606.34
2023-02-04T10:06:17.323Z,96597.00
2023-02-04T10:08:45.589Z,96601.47
2023-02-04T10:11:13.523Z,96602.91
2023-02-04T10:13:50.448Z,96597.81
2023-02-04T10:16:21.792Z,96599.28
2023-02-04T10:18:48.760Z,96599.50
2023-02-04T10:21:17.473Z,96592.41
2023-02-04T10:23:47.952Z,96599.28
2023-02-04T10:26:15.950Z,96596.91
2023-02-04T10:28:43.090Z,96593.34
2023-02-04T10:31:29.309Z,96585.91
2023-02-04T10:34:18.526Z,96588.91
2023-02-04T10:36:51.501Z,96583.09
2023-02-04T10:39:21.709Z,96588.91
2023-02-04T10:41:51.685Z,96576.63
2023-02-04T10:44:21.469Z,96578.63
2023-02-04T10:46:48.533Z,96577.47
2023-02-04T10:49:21.525Z,96572.34
2023-02-04T10:51:50.668Z,96581.78
2023-02-04T10:54:31.683Z,96573.47
2023-02-04T10:57:11.989Z,96574.44
2023-02-04T10:59:39.129Z,96572.03
2023-02-04T11:02:22.500Z,96564.69
2023-02-04T11:04:49.255Z,96563.09
2023-02-04T11:07:16.142Z,96556.03
2023-02-04T11:09:44.424Z,96549.22
2023-02-04T11:12:22.919Z,96546.44
2023-02-04T11:14:57.497Z,96541.84
2023-02-04T11:17:32.160Z,96539.88
2023-02-04T11:20:02.622Z,96534.91
2023-02-04T11:22:44.204Z,96534.59
2023-02-04T11:25:38.280Z,96528.78
2023-02-04T11:28:52.926Z,96519.91
2023-02-04T11:31:19.730Z,96516.22
2023-02-04T11:33:47.536Z,96516.00
2023-02-04T11:36:17.023Z,96503.19
2023-02-04T11:38:49.906Z,96498.44
2023-02-04T11:41:27.345Z,96479.16
2023-02-04T11:43:56.364Z,96468.69
2023-02-04T11:46:26.995Z,96473.53
2023-02-04T11:48:57.196Z,96477.09
2023-02-04T11:51:31.461Z,96463.03
2023-02-04T11:54:01.603Z,96461.00
2023-02-04T11:56:30.612Z,96459.09
2023-02-04T11:58:58.683Z,96464.03
2023-02-04T12:01:31.564Z,96450.84
2023-02-04T12:04:01.021Z,96450.53
2023-02-04T12:06:30.884Z,96458.63
2023-02-04T12:09:24.257Z,96452.13
2023-02-04T12:12:02.075Z,96460.41
2023-02-04T12:14:39.235Z,96456.59
2023-02-04T12:17:20.163Z,96452.63
2023-02-04T12:19:47.392Z,96451.41
2023-02-04T12:22:18.552Z,96454.50
2023-02-04T12:24:45.389Z,96448.88
2023-02-04T12:27:12.342Z,96454.25
2023-02-04T12:29:39.033Z,96456.91
2023-02-04T12:32:07.124Z,96464.19
2023-02-04T12:34:33.985Z,96468.75
2023-02-04T12:37:01.099Z,96465.13
2023-02-04T12:39:28.732Z,96471.97
2023-02-04T12:41:55.371Z,96455.34
2023-02-04T12:44:22.102Z,96450.84
2023-02-04T12:46:48.955Z,96448.94
2023-02-04T12:49:15.629Z,96454.44
2023-02-04T12:51:42.329Z,96454.09
2023-02-04T12:54:09.130Z,96450.00
2023-02-04T12:56:35.888Z,96459.97
2023-02-04T12:59:02.578Z,96467.84
2023-02-04T13:01:29.279Z,96464.13
2023-02-04T13:03:56.165Z,96462.84
2023-02-04T13:06:22.939Z,96453.66
2023-02-04T13:08:49.580Z,96462.31
2023-02-04T13:11:16.234Z,96457.72
2023-02-04T13:13:43.120Z,96462.44
2023-02-04T13:16:09.867Z,96464.91
2023-02-04T13:18:36.878Z,96465.50
2023-02-04T13:21:03.774Z,96468.69
2023-02-04T13:23:30.520Z,96462.63
2023-02-04T13:25:57.198Z,96460.41
2023-02-04T13:28:30.887Z,96464.28
2023-02-04T13:30:58.411Z,96474.38
2023-02-04T13:33:28.210Z,96475.69
2023-02-04T13:35:55.138Z,96484.88
2023-02-04T13:38:21.826Z,96481.69
2023-02-04T13:40:48.584Z,96484.06
2023-02-04T13:43:15.548Z,96488.66
2023-02-04T13:45:47.944Z,96505.66
2023-02-04T13:48:16.664Z,96506.16
2023-02-04T13:50:53.416Z,96506.28
2023-02-04T13:53:20.453Z,96501.09
2023-02-04T13:55:47.850Z,96507.94
2023-02-04T13:58:15.308Z,96506.63
2023-02-04T14:00:42.235Z,96501.31
2023-02-04T14:03:09.462Z,96515.53
2023-02-04T14:05:36.168Z,96509.38
2023-02-04T14:08:03.045Z,96513.41
2023-02-04T14:10:30.319Z,96508.41
2023-02-04T14:12:58.756Z,96506.53
2023-02-04T14:15:26.479Z,96501.19
2023-02-04T14:17:53.150Z,96508.78
2023-02-04T14:20:29.403Z,96512.69
2023-02-04T14:22:56.320Z,96521.94
2023-02-04T14:25:33.271Z,96518.84
2023-02-04T14:28:00.806Z,96535.06
2023-02-04T14:30:30.251Z,96543.25
2023-02-04T14:32:58.151Z,96542.28
2023-02-04T14:35:25.936Z,96550.59
2023-02-04T14:37:53.176Z,96560.06
2023-02-04T14:40:20.916Z,96557.22
2023-02-04T14:42:47.974Z,96556.84
2023-02-04T14:45:15.143Z,96553.53
2023-02-04T14:47:42.480Z,96568.25
2023-02-04T14:50:13.610Z,96552.69
2023-02-04T14:52:40.501Z,96561.69
2023-02-04T14:55:09.804Z,96558.84
2023-02-04T14:57:36.491Z,96566.09
2023-02-04T15:00:05.690Z,96577.31
2023-02-04T15:02:32.530Z,96576.38
2023-02-04T15:04:59.230Z,96571.50
2023-02-04T15:07:25.936Z,96582.75
2023-02-04T15:09:52.667Z,96587.59
2023-02-04T15:12:19.464Z,96589.28
2023-02-04T15:14:46.370Z,96590.56
2023-02-04T15:17:13.142Z,96597.88
2023-02-04T15:19:39.799Z,96601.66
2023-02-04T15:22:24.867Z,96610.41
2023-02-04T15:24:51.851Z,96608.97
2023-02-04T15:27:18.742Z,96607.31
2023-02-04T15:29:46.180Z,96619.00
2023-02-04T15:32:50.934Z,96619.47
2023-02-04T15:35:28.806Z,96626.25
2023-02-04T15:38:01.287Z,96630.72
2023-02-04T15:40:41.665Z,96633.53
2023-02-04T15:43:24.230Z,96628.75
2023-02-04T15:45:53.110Z,96635.91
2023-02-04T15:48:24.950Z,96645.16
2023-02-04T15:50:55.796Z,96637.78
2023-02-04T15:53:22.916Z,96644.91
2023-02-04T15:55:49.946Z,96662.38
2023-02-04T15:58:29.826Z,96665.72
2023-02-04T16:00:57.933Z,96672.59
2023-02-04T16:03:26.825Z,96669.50
2023-02-04T16:05:56.734Z,96677.78
2023-02-04T16:08:30.737Z,96681.44
2023-02-04T16:10:59.867Z,96683.66
2023-02-04T16:13:30.000Z,96681.06
2023-02-04T16:15:56.799Z,96689.31
2023-02-04T16:18:25.943Z,96679.72
2023-02-04T16:20:53.783Z,96688.88
2023-02-04T16:23:22.851Z,96711.56
2023-02-04T16:25:50.720Z,96705.13
2023-02-04T16:28:19.197Z,96712.88
2023-02-04T16:30:49.606Z,96709.53
2023-02-04T16:33:23.919Z,96721.91
2023-02-04T16:35:58.735Z,96722.91
2023-02-04T16:38:26.640Z,96732.00
2023-02-04T16:40:57.470Z,96726.25
2023-02-04T16:43:25.297Z,96719.59
2023-02-04T16:45:53.183Z,96723.56
2023-02-04T16:48:20.727Z,96729.59
2023-02-04T16:50:48.651Z,96729.28
2023-02-04T16:53:19.240Z,96735.19
2023-02-04T16:55:48.539Z,96733.97
2023-02-04T16:58:17.992Z,96741.84
2023-02-04T17:01:02.429Z,96746.25
2023-02-04T17:03:30.679Z,96762.00
2023-02-04T17:06:02.584Z,96772.72
2023-02-04T17:08:40.106Z,96773.00
2023-02-04T17:11:32.590Z,96770.25
2023-02-04T17:14:11.494Z,96785.41
2023-02-04T17:16:49.198Z,96785.34
2023-02-04T17:19:28.714Z,96777.97
2023-02-04T17:22:05.188Z,96795.50
2023-02-04T17:24:33.974Z,96787.94
2023-02-04T17:27:03.571Z,96803.63
2023-02-04T17:29:30.371Z,96800.94
2023-02-04T17:31:58.202Z,96813.38
2023-02-04T17:34:32.750Z,96816.50
2023-02-04T17:37:03.586Z,96821.34
2023-02-04T17:39:31.619Z,96820.22
2023-02-04T17:42:09.173Z,96835.78
2023-02-04T17:44:48.235Z,96837.25
2023-02-04T17:47:17.145Z,96835.13
2023-02-04T17:49:48.357Z,96845.50
2023-02-04T17:52:16.260Z,96843.84
2023-02-04T17:54:47.355Z,96847.81
2023-02-04T17:57:51.613Z,96847.81
2023-02-04T18:00:26.555Z,96835.88
2023-02-04T18:02:54.121Z,96832.66
2023-02-04T18:05:24.945Z,96846.09
2023-02-04T18:08:25.091Z,96853.75
2023-02-04T18:10:55.761Z,96841.72
2023-02-04T18:13:32.809Z,96863.19
2023-02-04T18:16:08.137Z,96872.03
2023-02-04T18:18:36.505Z,96869.03
2023-02-04T18:21:21.346Z,96883.59
2023-02-04T18:24:18.555Z,96875.03
2023-02-04T18:26:51.000Z,96886.94
2023-02-04T18:29:26.495Z,96878.56
2023-02-04T18:32:00.006Z,96895.06
2023-02-04T18:34:42.504Z,96892.47
2023-02-04T18:37:30.549Z,96895.78
2023-02-04T18:40:18.322Z,96914.69
2023-02-04T18:42:45.790Z,96913.69
2023-02-04T18:45:57.034Z,96904.50
2023-02-04T18:48:25.319Z,96914.88
2023-02-04T18:50:58.147Z,96915.72
2023-02-04T18:53:47.066Z,96923.97
2023-02-04T18:56:37.975Z,96924.31
2023-02-04T18:59:17.022Z,96931.44
2023-02-04T19:02:39.334Z,96859.81
2023-02-04T19:05:55.687Z,96929.38
2023-02-04T19:09:44.136Z,96918.34
2023-02-04T19:11:37.887Z,96931.78
2023-02-04T19:14:39.266Z,96934.72
2023-02-04T19:17:27.725Z,96944.16
2023-02-04T19:20:37.530Z,96949.28
2023-02-04T19:23:14.113Z,96928.06
2023-02-04T19:25:55.106Z,96937.97
2023-02-04T19:28:37.507Z,96945.03
2023-02-04T19:31:09.550Z,96945.09
2023-02-04T19:33:49.883Z,96946.84
2023-02-04T19:36:34.996Z,96945.84
2023-02-04T19:39:15.538Z,96962.13
2023-02-04T19:41:45.732Z,96954.47
2023-02-04T19:44:15.232Z,96951.31
2023-02-04T19:46:46.186Z,96945.38
2023-02-04T19:49:29.871Z,96957.50
2023-02-04T19:52:00.155Z,96960.91
2023-02-04T19:54:39.586Z,96968.34
2023-02-04T19:57:26.062Z,96970.00
2023-02-04T19:59:57.486Z,96965.66
2023-02-04T20:02:36.557Z,96978.19
2023-02-04T20:05:23.040Z,96974.66
2023-02-04T20:08:18.638Z,96971.50
2023-02-04T20:10:45.588Z,96976.69
2023-02-04T20:13:20.058Z,96983.28
2023-02-04T20:15:50.933Z,96967.81
2023-02-04T20:18:20.150Z,96968.81
2023-02-04T20:20:47.352Z,96985.69
2023-02-04T20:23:34.723Z,96987.66
2023-02-04T20:26:03.313Z,96991.34
2023-02-04T20:28:41.414Z,96994.22
2023-02-04T20:50:54.270Z,97008.06
2023-02-04T20:53:24.037Z,97022.84
2023-02-04T20:56:03.848Z,97003.50
2023-02-04T20:58:39.839Z,97038.13
2023-02-04T21:01:39.563Z,97033.75
2023-02-04T21:04:34.521Z,97041.78
2023-02-04T21:07:09.100Z,97031.41
2023-02-04T21:09:41.730Z,97039.25
2023-02-04T21:12:09.593Z,97035.25
2023-02-04T21:14:36.705Z,97039.25
2023-02-04T21:17:04.383Z,97040.94
2023-02-04T21:19:34.196Z,97017.72
2023-02-04T21:22:01.653Z,97046.28
2023-02-04T21:24:33.877Z,97046.94
2023-02-04T21:27:00.976Z,97022.72
2023-02-04T21:29:27.995Z,97046.28
2023-02-04T21:31:55.026Z,97035.31
2023-02-04T21:34:29.664Z,97055.97
2023-02-04T21:36:56.690Z,97049.97
2023-02-04T21:39:32.631Z,97070.34
2023-02-04T21:42:13.687Z,97044.97
2023-02-04T21:44:40.727Z,97069.13
2023-02-04T21:47:07.823Z,97063.16
2023-02-04T21:49:39.481Z,97059.50
2023-02-04T21:52:12.508Z,97058.16
2023-02-04T21:54:39.434Z,97093.59
2023-02-04T21:57:06.697Z,97098.13
2023-02-04T21:59:33.890Z,97104.81
2023-02-04T22:05:42.306Z,97101.22
2023-02-04T22:08:09.338Z,97105.16
2023-02-04T22:10:36.530Z,97101.94
2023-02-04T22:13:04.027Z,97112.47
2023-02-04T22:15:30.970Z,97114.44
2023-02-04T22:17:58.027Z,97097.19
2023-02-04T22:20:25.742Z,97101.13
2023-02-04T22:22:53.580Z,97116.69
2023-02-04T22:25:21.926Z,97111.00
2023-02-04T22:27:50.057Z,97096.72
2023-02-04T22:30:17.933Z,97117.84
2023-02-04T22:32:45.285Z,97118.78
2023-02-04T22:35:13.255Z,97131.63
2023-02-04T22:37:42.532Z,97131.97
2023-02-04T22:40:11.912Z,97130.19
2023-02-04T22:42:41.903Z,97136.53
2023-02-04T22:45:10.562Z,97131.84
2023-02-04T22:47:38.392Z,97139.03
2023-02-04T22:50:05.827Z,97123.50
2023-02-04T22:52:32.866Z,97134.00
2023-02-04T22:54:59.833Z,97129.22
2023-02-04T22:57:26.660Z,97139.00
2023-02-04T22:59:56.627Z,97130.09
2023-02-04T23:02:23.500Z,97145.81
2023-02-04T23:04:50.421Z,97140.41
2023-02-04T23:07:17.892Z,97145.13
2023-02-04T23:09:44.755Z,97144.66
2023-02-04T23:12:15.226Z,97142.94
2023-02-04T23:14:47.041Z,97130.34
2023-02-04T23:17:16.307Z,97138.06
2023-02-04T23:19:44.039Z,97142.94
2023-02-04T23:22:12.758Z,97146.25
2023-02-04T23:24:40.655Z,97138.34
2023-02-04T23:27:09.366Z,97143.38
2023-02-04T23:29:39.307Z,97146.75
2023-02-04T23:32:06.213Z,97148.41
2023-02-04T23:34:33.497Z,97156.59
2023-02-04T23:37:03.576Z,97151.03
2023-02-04T23:39:31.044Z,97150.06
2023-02-04T23:41:58.206Z,97136.84
2023-02-04T23:44:25.549Z,97132.56
2023-02-04T23:46:52.611Z,97148.84
2023-02-04T23:49:22.568Z,97167.72
2023-02-04T23:51:49.316Z,97155.19
2023-02-04T23:54:16.263Z,97144.16
2023-02-04T23:56:43.149Z,97156.44
2023-02-04T23:59:09.941Z,97164.56
